Alsea, Oregon
Current Conditions -  °F | °C
As of 2:15 AM on Friday 31 Oct 2014 (Local Time) from KCVO Reporting Station
Overcast Overcast  
Wind Chill: 14°   Ceiling: 2900
Heat Index: 14°   Visibility: 10mi
Dew Point: 13°   Wind: 3mph
Humidity: 94%   Direction: 90°E
Pressure: 29.71"   Gusts: NA
Location:  44.38°N, 123.6°W
Report Text: KCVO 310915Z AUTO 09003KT 10SM BKN029 BKN037 OVC047 14/13 A2971 RMK AO1
Loading
Personal Weather Stations






























Interactive Weather Map New forecast layout! Learn more

10-Day Weather Forecast

Advertisements
Track Severe Weather on mobile